createdAt,value
2018-03-31T00:00:37.533Z,99.90
2018-03-31T00:03:04.946Z,99.90
2018-03-31T00:05:32.386Z,99.90
2018-03-31T00:07:59.803Z,99.90
2018-03-31T00:10:27.217Z,99.90
2018-03-31T00:12:54.650Z,99.90
2018-03-31T00:15:22.081Z,99.90
2018-03-31T00:17:49.535Z,99.90
2018-03-31T00:20:16.958Z,99.90
2018-03-31T00:22:44.375Z,99.90
2018-03-31T00:25:11.817Z,99.90
2018-03-31T00:27:39.246Z,99.90
2018-03-31T00:30:07.427Z,99.90
2018-03-31T00:32:35.644Z,99.90
2018-03-31T00:35:03.064Z,99.90
2018-03-31T00:37:30.482Z,99.90
2018-03-31T00:39:57.966Z,99.90
2018-03-31T00:42:26.154Z,99.90
2018-03-31T00:44:53.578Z,99.90
2018-03-31T00:47:21.008Z,99.90
2018-03-31T00:49:48.460Z,99.90
2018-03-31T00:52:15.878Z,99.90
2018-03-31T00:54:44.091Z,99.90
2018-03-31T00:57:11.534Z,99.90
2018-03-31T00:59:38.946Z,99.90
2018-03-31T01:02:06.367Z,99.90
2018-03-31T01:04:33.791Z,99.90
2018-03-31T01:07:01.210Z,99.90
2018-03-31T01:09:28.622Z,99.90
2018-03-31T01:11:56.063Z,99.90
2018-03-31T01:14:23.488Z,99.90
2018-03-31T01:16:51.679Z,99.90
2018-03-31T01:19:19.860Z,99.90
2018-03-31T01:21:48.081Z,99.90
2018-03-31T01:24:15.508Z,99.90
2018-03-31T01:26:42.926Z,99.90
2018-03-31T01:29:10.335Z,99.90
2018-03-31T01:31:37.791Z,99.90
2018-03-31T01:34:05.202Z,99.90
2018-03-31T01:36:33.410Z,99.90
2018-03-31T01:39:00.835Z,99.90
2018-03-31T01:41:29.013Z,99.90
2018-03-31T01:43:57.182Z,99.90
2018-03-31T01:46:25.375Z,99.90
2018-03-31T01:48:53.601Z,99.90
2018-03-31T01:51:21.046Z,99.90
2018-03-31T01:53:48.481Z,99.90
2018-03-31T01:56:15.910Z,99.90
2018-03-31T01:58:44.129Z,99.90
2018-03-31T02:01:11.557Z,99.90
2018-03-31T02:03:38.973Z,99.90
2018-03-31T02:06:06.412Z,99.90
2018-03-31T02:08:33.830Z,99.90
2018-03-31T02:11:02.017Z,99.90
2018-03-31T02:13:29.429Z,99.90
2018-03-31T02:15:56.853Z,99.90
2018-03-31T02:18:24.273Z,99.90
2018-03-31T02:20:51.704Z,99.90
2018-03-31T02:23:19.935Z,99.90
2018-03-31T02:25:47.402Z,99.90
2018-03-31T02:28:14.813Z,99.90
2018-03-31T02:30:43.020Z,99.90
2018-03-31T02:33:10.443Z,99.90
2018-03-31T02:35:37.876Z,99.90
2018-03-31T02:38:05.296Z,99.90
2018-03-31T02:40:32.723Z,99.90
2018-03-31T02:43:00.139Z,99.90
2018-03-31T02:45:27.601Z,99.90
2018-03-31T02:47:55.048Z,99.90
2018-03-31T02:50:22.500Z,99.90
2018-03-31T02:52:50.706Z,99.90
2018-03-31T02:55:18.895Z,99.90
2018-03-31T02:57:47.107Z,99.90
2018-03-31T03:00:14.541Z,99.90
2018-03-31T03:02:41.995Z,99.90
2018-03-31T03:05:09.439Z,99.90
2018-03-31T03:07:37.647Z,99.90
2018-03-31T03:10:05.070Z,99.90
2018-03-31T03:12:33.267Z,99.90
2018-03-31T03:15:00.686Z,99.90
2018-03-31T03:17:28.108Z,99.90
2018-03-31T03:19:55.560Z,99.90
2018-03-31T03:22:23.009Z,99.90
2018-03-31T03:24:50.445Z,99.90
2018-03-31T03:27:17.865Z,99.90
2018-03-31T03:29:45.315Z,99.90
2018-03-31T03:32:12.731Z,99.90
2018-03-31T03:34:40.145Z,99.90
2018-03-31T03:37:07.599Z,99.90
2018-03-31T03:39:35.012Z,99.90
2018-03-31T03:42:02.478Z,99.90
2018-03-31T03:44:29.926Z,99.90
2018-03-31T03:46:57.354Z,99.90
2018-03-31T03:49:25.576Z,99.90
2018-03-31T03:51:53.001Z,99.90
2018-03-31T03:54:20.427Z,99.90
2018-03-31T03:56:48.618Z,99.90
2018-03-31T03:59:16.068Z,99.90
2018-03-31T04:01:44.258Z,99.90
2018-03-31T04:04:11.673Z,99.90
2018-03-31T04:06:39.089Z,99.90
2018-03-31T04:09:06.505Z,99.90
2018-03-31T04:11:34.702Z,99.90
2018-03-31T04:14:02.120Z,99.90
2018-03-31T04:16:29.542Z,99.90
2018-03-31T04:18:56.955Z,99.90
2018-03-31T04:21:25.176Z,99.90
2018-03-31T04:23:52.602Z,99.90
2018-03-31T04:26:20.027Z,99.90
2018-03-31T04:28:47.475Z,99.90
2018-03-31T04:31:14.938Z,99.90
2018-03-31T04:33:42.372Z,99.90
2018-03-31T04:36:09.782Z,99.90
2018-03-31T04:38:37.965Z,99.90
2018-03-31T04:41:05.380Z,99.90
2018-03-31T04:43:32.837Z,99.90
2018-03-31T04:46:00.248Z,99.90
2018-03-31T04:48:27.679Z,99.90
2018-03-31T04:50:55.873Z,99.90
2018-03-31T04:53:23.298Z,99.90
2018-03-31T04:55:50.717Z,99.90
2018-03-31T04:58:18.368Z,99.90
2018-03-31T05:00:45.807Z,99.90
2018-03-31T05:03:13.235Z,99.90
2018-03-31T05:05:41.447Z,99.90
2018-03-31T05:08:08.885Z,99.90
2018-03-31T05:10:36.354Z,99.90
2018-03-31T05:13:03.794Z,99.90
2018-03-31T05:15:31.986Z,99.90
2018-03-31T05:17:59.441Z,99.90
2018-03-31T05:20:26.857Z,99.90
2018-03-31T05:22:54.270Z,99.90
2018-03-31T05:25:21.685Z,99.90
2018-03-31T05:27:49.940Z,99.90
2018-03-31T05:30:17.410Z,99.90
2018-03-31T05:32:44.838Z,99.90
2018-03-31T05:35:12.280Z,99.90
2018-03-31T05:37:39.731Z,99.90
2018-03-31T05:40:07.230Z,99.90
2018-03-31T05:42:34.643Z,99.90
2018-03-31T05:45:02.079Z,99.90
2018-03-31T05:47:30.269Z,99.90
2018-03-31T05:49:57.711Z,99.90
2018-03-31T05:52:25.926Z,99.90
2018-03-31T05:54:53.346Z,99.90
2018-03-31T05:57:20.823Z,99.90
2018-03-31T05:59:48.234Z,99.90
2018-03-31T06:02:15.653Z,99.90
2018-03-31T06:04:43.066Z,99.90
2018-03-31T06:07:11.262Z,99.90
2018-03-31T06:09:38.682Z,99.90
2018-03-31T06:12:06.140Z,99.90
2018-03-31T06:14:33.583Z,99.90
2018-03-31T06:17:01.028Z,99.90
2018-03-31T06:19:28.470Z,99.90
2018-03-31T06:21:55.895Z,99.90
2018-03-31T06:24:24.118Z,99.90
2018-03-31T06:26:51.574Z,99.90
2018-03-31T06:29:19.002Z,99.90
2018-03-31T06:31:46.427Z,99.90
2018-03-31T06:34:14.621Z,99.90
2018-03-31T06:36:42.045Z,99.90
2018-03-31T06:39:09.473Z,99.90
2018-03-31T06:41:36.894Z,99.90
2018-03-31T06:44:04.339Z,99.90
2018-03-31T06:46:32.530Z,99.90
2018-03-31T06:48:59.973Z,99.90
2018-03-31T06:51:28.159Z,99.90
2018-03-31T06:53:55.594Z,99.90
2018-03-31T06:56:23.798Z,99.90
2018-03-31T06:58:51.278Z,99.90
2018-03-31T07:01:18.682Z,99.90
2018-03-31T07:03:46.891Z,99.90
2018-03-31T07:06:14.301Z,99.90
2018-03-31T07:08:41.705Z,99.90
2018-03-31T07:11:09.117Z,99.90
2018-03-31T07:13:36.545Z,99.90
2018-03-31T07:16:03.966Z,99.90
2018-03-31T07:18:31.379Z,99.90
2018-03-31T07:20:59.604Z,99.90
2018-03-31T07:23:27.054Z,99.80
2018-03-31T07:25:54.483Z,99.50
2018-03-31T07:28:21.905Z,99.20
2018-03-31T07:30:49.339Z,98.90
2018-03-31T07:33:16.768Z,98.70
2018-03-31T07:35:44.953Z,98.50
2018-03-31T07:38:12.394Z,98.50
2018-03-31T07:40:40.626Z,96.90
2018-03-31T07:43:08.050Z,96.90
2018-03-31T07:45:35.489Z,96.50
2018-03-31T07:48:03.678Z,96.30
2018-03-31T07:50:31.101Z,96.20
2018-03-31T07:52:58.589Z,96.30
2018-03-31T07:55:26.795Z,95.80
2018-03-31T07:57:54.209Z,95.70
2018-03-31T08:00:22.422Z,95.50
2018-03-31T08:02:49.867Z,95.40
2018-03-31T08:05:17.311Z,95.50
2018-03-31T08:07:45.512Z,95.10
2018-03-31T08:10:12.947Z,95.10
2018-03-31T08:12:40.368Z,94.90
2018-03-31T08:15:07.798Z,94.50
2018-03-31T08:17:35.214Z,94.10
2018-03-31T08:20:02.638Z,93.90
2018-03-31T08:22:30.074Z,93.50
2018-03-31T08:24:57.504Z,93.70
2018-03-31T08:27:24.918Z,93.20
2018-03-31T08:29:53.133Z,92.70
2018-03-31T08:32:20.554Z,92.40
2018-03-31T08:34:48.791Z,92.60
2018-03-31T08:37:16.214Z,92.50
2018-03-31T08:39:43.637Z,92.40
2018-03-31T08:42:11.849Z,91.90
2018-03-31T08:44:39.286Z,91.80
2018-03-31T08:47:07.481Z,92.40
2018-03-31T08:49:34.906Z,92.30
2018-03-31T08:52:03.106Z,91.90
2018-03-31T08:54:30.522Z,91.80
2018-03-31T08:56:57.974Z,91.70
2018-03-31T08:59:25.450Z,92.00
2018-03-31T09:01:52.872Z,91.20
2018-03-31T09:04:20.305Z,91.40
2018-03-31T09:06:47.722Z,91.50
2018-03-31T09:09:15.977Z,91.70
2018-03-31T09:11:43.349Z,91.30
2018-03-31T09:14:10.776Z,90.40
2018-03-31T09:16:38.266Z,90.40
2018-03-31T09:19:05.651Z,90.50
2018-03-31T09:21:33.062Z,90.60
2018-03-31T09:24:00.475Z,90.60
2018-03-31T09:26:27.894Z,91.20
2018-03-31T09:28:55.331Z,90.60
2018-03-31T09:31:22.761Z,90.90
2018-03-31T09:33:50.205Z,91.10
2018-03-31T09:36:17.653Z,91.10
2018-03-31T09:38:45.080Z,91.40
2018-03-31T09:41:12.495Z,91.10
2018-03-31T09:43:39.923Z,91.30
2018-03-31T09:46:07.340Z,91.30
2018-03-31T09:48:34.753Z,90.80
2018-03-31T09:51:02.185Z,90.40
2018-03-31T09:53:30.380Z,90.60
2018-03-31T09:55:57.802Z,90.60
2018-03-31T09:58:25.989Z,91.40
2018-03-31T10:00:59.772Z,91.80
2018-03-31T10:03:27.222Z,91.70
2018-03-31T10:05:54.688Z,92.10
2018-03-31T10:08:22.100Z,92.40
2018-03-31T10:10:49.533Z,92.30
2018-03-31T10:13:16.971Z,92.50
2018-03-31T10:15:45.185Z,91.50
2018-03-31T10:18:12.603Z,91.50
2018-03-31T10:20:40.799Z,90.80
2018-03-31T10:23:08.209Z,90.70
2018-03-31T10:25:35.680Z,90.30
2018-03-31T10:28:03.136Z,90.50
2018-03-31T10:30:30.550Z,90.50
2018-03-31T10:32:58.102Z,90.40
2018-03-31T10:35:25.563Z,90.40
2018-03-31T10:37:53.005Z,90.30
2018-03-31T10:40:20.414Z,90.30
2018-03-31T10:42:47.822Z,90.00
2018-03-31T10:45:15.274Z,90.10
2018-03-31T10:47:42.697Z,90.00
2018-03-31T10:50:10.118Z,90.10
2018-03-31T10:52:37.542Z,90.10
2018-03-31T10:55:04.955Z,90.10
2018-03-31T10:57:32.364Z,88.60
2018-03-31T10:59:59.791Z,89.20
2018-03-31T11:02:27.990Z,89.80
2018-03-31T11:04:55.402Z,89.80
2018-03-31T11:07:22.865Z,89.80
2018-03-31T11:09:50.325Z,89.90
2018-03-31T11:12:17.727Z,89.80
2018-03-31T11:14:45.163Z,90.20
2018-03-31T11:17:13.366Z,90.20
2018-03-31T11:19:40.770Z,90.20
2018-03-31T11:22:08.224Z,90.80
2018-03-31T11:24:35.654Z,91.00
2018-03-31T11:27:03.077Z,91.10
2018-03-31T11:29:30.498Z,91.10
2018-03-31T11:31:57.914Z,91.10
2018-03-31T11:34:25.337Z,91.00
2018-03-31T11:36:53.522Z,90.50
2018-03-31T11:39:20.946Z,90.50
2018-03-31T11:41:48.360Z,90.50
2018-03-31T11:44:15.764Z,89.70
2018-03-31T11:46:43.945Z,89.80
2018-03-31T11:49:12.147Z,89.80
2018-03-31T11:51:39.562Z,89.60
2018-03-31T11:54:07.779Z,87.60
2018-03-31T11:56:35.202Z,87.60
2018-03-31T11:59:03.388Z,88.10
2018-03-31T12:01:31.586Z,87.70
2018-03-31T12:03:59.006Z,87.60
2018-03-31T12:06:26.435Z,88.30
2018-03-31T12:08:53.874Z,88.00
2018-03-31T12:11:21.281Z,88.60
2018-03-31T12:13:48.726Z,88.60
2018-03-31T12:16:16.139Z,89.20
2018-03-31T12:18:43.545Z,89.80
2018-03-31T12:21:10.967Z,90.10
2018-03-31T12:23:38.377Z,90.40
2018-03-31T12:26:06.574Z,90.80
2018-03-31T12:28:33.992Z,90.80
2018-03-31T12:31:01.426Z,90.80
2018-03-31T12:33:28.842Z,90.70
2018-03-31T12:35:56.272Z,90.80
2018-03-31T12:38:24.461Z,91.10
2018-03-31T12:40:51.891Z,91.10
2018-03-31T12:43:19.306Z,91.10
2018-03-31T12:45:46.748Z,91.00
2018-03-31T12:48:14.186Z,90.70
2018-03-31T12:50:42.372Z,89.00
2018-03-31T12:53:09.798Z,89.00
2018-03-31T12:55:37.227Z,86.90
2018-03-31T12:58:04.639Z,83.70
2018-03-31T13:00:32.817Z,77.20
2018-03-31T13:03:00.235Z,77.10
2018-03-31T13:05:27.660Z,77.70
2018-03-31T13:07:55.086Z,78.60
2018-03-31T13:10:22.517Z,79.40
2018-03-31T13:12:49.925Z,80.40
2018-03-31T13:15:17.342Z,80.50
2018-03-31T13:17:45.527Z,61.80
2018-03-31T13:20:12.946Z,61.50
2018-03-31T13:22:40.390Z,47.50
2018-03-31T13:25:07.802Z,39.30
2018-03-31T13:27:35.230Z,38.70
2018-03-31T13:30:02.744Z,37.40
2018-03-31T13:32:30.162Z,35.50
2018-03-31T13:34:58.355Z,37.30
2018-03-31T13:37:25.775Z,37.20
2018-03-31T13:39:53.188Z,35.10
2018-03-31T13:42:20.607Z,37.40
2018-03-31T13:44:48.811Z,45.70
2018-03-31T13:47:16.227Z,45.60
2018-03-31T13:49:43.636Z,47.00
2018-03-31T13:52:11.046Z,49.40
2018-03-31T13:54:39.217Z,55.00
2018-03-31T13:57:07.408Z,57.20
2018-03-31T13:59:35.586Z,60.50
2018-03-31T14:02:03.774Z,63.20
2018-03-31T14:04:31.190Z,63.10
2018-03-31T14:06:58.615Z,66.40
2018-03-31T14:09:26.041Z,68.90
2018-03-31T14:11:53.481Z,70.60
2018-03-31T14:14:21.671Z,73.10
2018-03-31T14:16:49.077Z,73.00
2018-03-31T14:19:16.505Z,74.40
2018-03-31T14:21:43.915Z,75.50
2018-03-31T14:24:12.090Z,77.50
2018-03-31T14:26:40.275Z,78.40
2018-03-31T14:29:08.464Z,79.10
2018-03-31T14:31:35.890Z,79.00
2018-03-31T14:34:03.306Z,79.60
2018-03-31T14:36:30.720Z,80.50
2018-03-31T14:38:58.911Z,83.20
2018-03-31T14:41:26.337Z,83.00
2018-03-31T14:43:54.009Z,83.50
2018-03-31T14:46:22.187Z,84.40
2018-03-31T14:48:50.409Z,84.80
2018-03-31T14:51:17.827Z,84.70
2018-03-31T14:53:46.010Z,85.60
2018-03-31T14:56:13.440Z,85.50
2018-03-31T14:58:40.857Z,86.20
2018-03-31T15:01:08.304Z,86.80
2018-03-31T15:03:35.746Z,86.80
2018-03-31T15:06:03.169Z,87.30
2018-03-31T15:08:31.378Z,88.50
2018-03-31T15:10:58.800Z,88.40
2018-03-31T15:13:26.991Z,89.00
2018-03-31T15:15:55.198Z,89.60
2018-03-31T15:18:22.632Z,89.60
2018-03-31T15:20:50.056Z,89.90
2018-03-31T15:23:17.474Z,90.00
2018-03-31T15:25:44.916Z,90.00
2018-03-31T15:28:12.330Z,90.20
2018-03-31T15:30:39.752Z,90.50
2018-03-31T15:33:07.169Z,91.00
2018-03-31T15:35:35.523Z,91.30
2018-03-31T15:38:02.950Z,91.30
2018-03-31T15:40:30.361Z,91.60
2018-03-31T15:42:58.542Z,92.10
2018-03-31T15:45:25.966Z,92.00
2018-03-31T15:47:53.407Z,92.20
2018-03-31T15:50:20.822Z,92.50
2018-03-31T15:52:48.254Z,92.60
2018-03-31T15:55:16.448Z,93.00
2018-03-31T15:57:43.874Z,92.90
2018-03-31T16:00:11.291Z,93.10
2018-03-31T16:02:38.706Z,93.20
2018-03-31T16:05:06.886Z,93.10
2018-03-31T16:07:34.297Z,93.10
2018-03-31T16:10:01.706Z,93.30
2018-03-31T16:12:29.161Z,93.80
2018-03-31T16:14:56.586Z,93.90
2018-03-31T16:17:24.014Z,94.50
2018-03-31T16:19:51.425Z,94.50
2018-03-31T16:22:19.611Z,95.00
2018-03-31T16:24:47.031Z,95.00
2018-03-31T16:27:14.443Z,95.40
2018-03-31T16:29:41.874Z,95.60
2018-03-31T16:32:09.302Z,95.70
2018-03-31T16:34:36.772Z,95.80
2018-03-31T16:37:04.186Z,95.90
2018-03-31T16:39:31.599Z,96.10
2018-03-31T16:41:59.779Z,96.60
2018-03-31T16:44:27.233Z,96.60
2018-03-31T16:46:54.690Z,96.90
2018-03-31T16:49:22.083Z,97.10
2018-03-31T16:51:49.515Z,97.20
2018-03-31T16:54:16.970Z,97.20
2018-03-31T16:56:44.393Z,97.40
2018-03-31T16:59:11.819Z,97.70
2018-03-31T17:01:39.237Z,97.90
2018-03-31T17:04:06.722Z,98.00
2018-03-31T17:06:34.871Z,98.30
2018-03-31T17:09:02.289Z,97.90
2018-03-31T17:11:29.706Z,98.20
2018-03-31T17:13:57.114Z,98.30
2018-03-31T17:16:25.312Z,98.40
2018-03-31T17:18:52.766Z,98.40
2018-03-31T17:21:20.205Z,98.40
2018-03-31T17:23:48.410Z,98.60
2018-03-31T17:26:15.839Z,98.50
2018-03-31T17:28:44.026Z,98.80
2018-03-31T17:31:12.210Z,98.80
2018-03-31T17:33:39.625Z,98.70
2018-03-31T17:36:07.044Z,98.70
2018-03-31T17:38:34.470Z,98.80
2018-03-31T17:41:02.684Z,99.00
2018-03-31T17:43:30.095Z,98.90
2018-03-31T17:45:58.295Z,99.00
2018-03-31T17:48:25.743Z,99.00
2018-03-31T17:50:53.167Z,99.00
2018-03-31T17:53:20.594Z,99.00
2018-03-31T17:55:48.014Z,99.10
2018-03-31T17:58:15.426Z,99.20
2018-03-31T18:00:42.857Z,99.20
2018-03-31T18:03:10.278Z,99.10
2018-03-31T18:05:38.460Z,99.10
2018-03-31T18:08:05.879Z,99.00
2018-03-31T18:10:33.304Z,99.10
2018-03-31T18:13:00.735Z,99.00
2018-03-31T18:15:28.167Z,99.00
2018-03-31T18:17:56.353Z,99.00
2018-03-31T18:20:24.558Z,99.10
2018-03-31T18:22:52.013Z,99.10
2018-03-31T18:25:19.458Z,99.00
2018-03-31T18:27:46.886Z,99.00
2018-03-31T18:30:15.080Z,98.90
2018-03-31T18:32:43.292Z,98.50
2018-03-31T18:35:10.706Z,98.50
2018-03-31T18:37:38.897Z,98.70
2018-03-31T18:40:06.342Z,98.60
2018-03-31T18:42:34.529Z,98.40
2018-03-31T18:45:01.950Z,98.40
2018-03-31T18:47:29.376Z,98.10
2018-03-31T18:49:56.819Z,98.00
2018-03-31T18:52:24.243Z,98.00
2018-03-31T18:54:52.430Z,97.90
2018-03-31T18:57:19.896Z,97.90
2018-03-31T18:59:47.314Z,98.00
2018-03-31T19:02:14.737Z,98.10
2018-03-31T19:04:42.164Z,98.10
2018-03-31T19:07:09.582Z,98.20
2018-03-31T19:09:37.010Z,98.30
2018-03-31T19:12:04.431Z,98.30
2018-03-31T19:14:31.880Z,98.50
2018-03-31T19:17:05.569Z,98.70
2018-03-31T19:19:33.754Z,98.70
2018-03-31T19:22:01.973Z,98.50
2018-03-31T19:24:29.424Z,98.40
2018-03-31T19:26:56.877Z,98.50
2018-03-31T19:29:24.294Z,98.60
2018-03-31T19:31:52.505Z,98.70
2018-03-31T19:34:20.057Z,98.70
2018-03-31T19:36:47.401Z,99.10
2018-03-31T19:39:20.452Z,98.90
2018-03-31T19:41:47.878Z,99.00
2018-03-31T19:44:15.298Z,99.20
2018-03-31T19:46:43.478Z,99.30
2018-03-31T19:49:10.903Z,99.30
2018-03-31T19:51:39.106Z,99.60
2018-03-31T19:54:06.532Z,99.40
2018-03-31T19:56:33.950Z,99.50
2018-03-31T19:59:01.385Z,99.50
2018-03-31T20:01:28.826Z,99.60
2018-03-31T20:03:57.017Z,99.60
2018-03-31T20:06:24.438Z,99.60
2018-03-31T20:08:51.858Z,99.60
2018-03-31T20:11:19.317Z,99.70
2018-03-31T20:13:46.760Z,99.70
2018-03-31T20:16:14.350Z,99.70
2018-03-31T20:18:41.798Z,99.70
2018-03-31T20:21:09.243Z,99.70
2018-03-31T20:23:36.658Z,99.60
2018-03-31T20:26:04.842Z,99.50
2018-03-31T20:28:33.024Z,99.50
2018-03-31T20:31:00.458Z,99.40
2018-03-31T20:33:28.675Z,99.60
2018-03-31T20:35:56.106Z,99.50
2018-03-31T20:38:24.293Z,99.70
2018-03-31T20:40:51.714Z,99.70
2018-03-31T20:43:19.138Z,95.70
2018-03-31T20:45:46.558Z,94.10
2018-03-31T20:48:13.979Z,93.40
2018-03-31T20:50:41.421Z,93.20
2018-03-31T20:53:08.892Z,92.80
2018-03-31T20:55:36.322Z,92.40
2018-03-31T20:58:03.737Z,92.50
2018-03-31T21:00:31.914Z,92.40
2018-03-31T21:03:00.102Z,92.10
2018-03-31T21:05:27.528Z,92.10
2018-03-31T21:07:55.702Z,93.00
2018-03-31T21:10:23.884Z,93.80
2018-03-31T21:12:52.075Z,93.60
2018-03-31T21:15:19.493Z,93.60
2018-03-31T21:17:46.909Z,94.10
2018-03-31T21:20:14.317Z,94.70
2018-03-31T21:22:42.525Z,95.50
2018-03-31T21:25:09.944Z,95.50
2018-03-31T21:27:37.353Z,95.70
2018-03-31T21:30:04.763Z,95.90
2018-03-31T21:32:32.958Z,95.30
2018-03-31T21:35:00.372Z,95.20
2018-03-31T21:37:27.792Z,95.70
2018-03-31T21:39:55.207Z,95.80
2018-03-31T21:42:22.614Z,96.00
2018-03-31T21:44:50.027Z,95.90
2018-03-31T21:47:18.217Z,95.80
2018-03-31T21:49:45.630Z,95.80
2018-03-31T21:52:13.045Z,95.90
2018-03-31T21:54:40.469Z,95.80
2018-03-31T21:57:08.662Z,95.30
2018-03-31T21:59:36.094Z,95.30
2018-03-31T22:02:03.535Z,95.40
2018-03-31T22:04:30.969Z,95.20
2018-03-31T22:06:58.417Z,95.40
2018-03-31T22:09:25.839Z,95.90
2018-03-31T22:11:54.036Z,94.80
2018-03-31T22:14:27.090Z,94.80
2018-03-31T22:16:55.383Z,95.60
2018-03-31T22:19:23.607Z,95.10
2018-03-31T22:21:51.028Z,95.00
2018-03-31T22:24:18.471Z,94.80
2018-03-31T22:26:46.666Z,95.10
2018-03-31T22:29:14.313Z,95.20
2018-03-31T22:31:42.522Z,95.00
2018-03-31T22:34:09.960Z,95.00
2018-03-31T22:36:37.399Z,94.80
2018-03-31T22:39:05.597Z,94.70
2018-03-31T22:41:33.052Z,94.70
2018-03-31T22:44:00.467Z,94.50
2018-03-31T22:46:27.881Z,94.60
2018-03-31T22:48:55.337Z,94.70
2018-03-31T22:51:22.813Z,94.50
2018-03-31T22:53:50.208Z,94.30
2018-03-31T22:56:18.407Z,93.20
2018-03-31T22:58:45.857Z,93.20
2018-03-31T23:01:14.047Z,94.00
2018-03-31T23:03:41.470Z,94.00
2018-03-31T23:06:09.655Z,94.50
2018-03-31T23:08:37.825Z,94.50
2018-03-31T23:11:06.012Z,94.50
2018-03-31T23:13:34.187Z,94.70
2018-03-31T23:16:01.615Z,94.70
2018-03-31T23:18:29.816Z,94.50
2018-03-31T23:20:57.989Z,94.50
2018-03-31T23:23:26.170Z,94.50
2018-03-31T23:25:53.586Z,94.50
2018-03-31T23:28:21.009Z,94.80
2018-03-31T23:30:48.421Z,94.60
2018-03-31T23:33:16.593Z,94.20
2018-03-31T23:35:44.788Z,94.40
2018-03-31T23:38:12.959Z,94.20
2018-03-31T23:40:41.140Z,94.20
2018-03-31T23:43:08.574Z,94.20
2018-03-31T23:45:36.767Z,94.20
2018-03-31T23:48:04.963Z,94.40
2018-03-31T23:50:32.387Z,94.30
2018-03-31T23:53:00.564Z,94.40
2018-03-31T23:55:28.780Z,94.40
2018-03-31T23:57:56.209Z,94.40
